Etusivu
METAR-TAF:

METAR-TAF

Lentoasemat :

Kittilän lentoasema

Kittilä, Suomi

Leveyspiiri: 67-42N, Pituuspiiri: 024-51E, korkeus merenpinnasta: 196 m

Tämänhetkinen sää

Tämä raportti tehtiin 24 minuuttia sitten, kello 20.50 UTC
Tuuli 2 kn eri suunnista
Lämpötila 3°C
Kosteus 93%
Ilmanpaine 1002 hPa
Näkyvyys 10 km tai enemmän
ei pilviä alle 1500 m:ssä eikä cumulonimbus-pilviä

METAR: EFKT 182050Z AUTO VRB02KT CAVOK 03/02 Q1002

Aika: 00:14 (21:14 UTC)

Sääennuste

Tämä raportti tehtiin 12 tuntia ja 47 minuuttia sitten, kello 08.27 UTC
Ennuste voimassa 18. päivästä klo 09 UTC - 18. päivään klo 12 UTC
Tuuli 3 kn lännestä
Näkyvyys 10 km tai enemmän
ei pilviä alle 1500 m:ssä eikä cumulonimbus-pilviä

TAF: EFKT 180827Z 1809/1812 27003KT CAVOK

Säähavainnot ja -ennusteet yli 4000 lentoasemalta (METAR- ja TAF-raportit).

Käytössä olevat sääasemat on merkitty karttaan keltaisilla ja punaisilla pisteillä.

Aseta hiiri pisteen päälle nähdäksesi sääaseman nimen.

Klikkaa sitten nähdäksesi säähavainnot ja -ennusteet.

Kartan vaihtaminen: klikkaa mustalla rastilla varustettuja vihreitä pisteitä, niin voit zoomata sisään; viivalla varustettua vihreää pistettä, niin voit zoomata ulos tai vihreitä nuolia, niin pääset viereisille kartoille.


METAR-TAF: